Terminal Aerodrome Forecast
Issued by NWS

Home | Current Version | Previous Version | Text Only | Print | Product List | Glossary On
Versions: 1 2 3 4 5 6 7 8 9 10 11 12
000
FTUS44 KLZK 021700
TAFBPK
TAF
KBPK 021725Z 0218/0318 18010G18KT P6SM VCTS SCT025 BKN050CB
      TEMPO 0223/0301 27015G25KT 2SM +TSRA BKN015CB
     FM030200 27010KT 5SM BR VCSH OVC025
     FM030800 30007KT P6SM BKN100
     FM031500 30010G16KT P6SM SCT100 BKN250=

USA.gov is the U.S. government's official web portal to all federal, state and local government web resources and services.